Time;durP1;ratioP1;P1;durP2;ratioP2;P2;SDS_P1;SDS_P2;PMS_P1;PMS_P2;Temp;Humidity;BMP_temperature;BMP_pressure;BME280_temperature;BME280_humidity;BME280_pressure;Samples;Min_cycle;Max_cycle;Signal;HPM_P1;HPM_P2
2022/10/15 00:01:14;;;;;;;0.50;0.40;;;14.20;99.90;;;;;;5094076;28;20447;-77
2022/10/15 00:03:42;;;;;;;0.50;0.30;;;14.20;99.90;;;;;;5094236;28;20864;-77
2022/10/15 00:06:11;;;;;;;0.50;0.40;;;14.10;99.90;;;;;;5093834;28;20903;-78
2022/10/15 00:08:40;;;;;;;0.50;0.40;;;14.10;99.90;;;;;;5093887;28;20440;-73
2022/10/15 00:11:09;;;;;;;0.50;0.30;;;14.00;99.90;;;;;;5094028;28;20895;-77
2022/10/15 00:13:37;;;;;;;0.50;0.30;;;13.90;99.90;;;;;;5093839;28;20455;-77
2022/10/15 00:16:04;;;;;;;1.37;1.17;;;13.90;99.90;;;;;;5093480;28;20602;-79
2022/10/15 00:18:31;;;;;;;1.43;0.93;;;13.90;99.90;;;;;;5093982;28;20820;-77
2022/10/15 00:20:58;;;;;;;0.50;0.40;;;13.90;99.90;;;;;;5093657;28;20445;-77
2022/10/15 00:23:25;;;;;;;0.63;0.63;;;13.80;99.90;;;;;;5093505;28;20828;-76
2022/10/15 00:26:05;;;;;;;0.50;0.30;;;13.80;99.90;;;;;;5093370;28;20480;-76
2022/10/15 00:28:33;;;;;;;0.50;0.30;;;13.80;99.90;;;;;;5093780;28;20439;-76
2022/10/15 00:31:01;;;;;;;0.50;0.40;;;13.70;99.90;;;;;;5093583;28;20458;-76
2022/10/15 00:33:28;;;;;;;0.50;0.40;;;13.70;99.90;;;;;;5093086;28;20455;-76
2022/10/15 00:35:59;;;;;;;0.50;0.40;;;13.60;99.90;;;;;;5092948;28;20595;-75
2022/10/15 00:38:26;;;;;;;0.50;0.40;;;13.60;99.90;;;;;;5093525;28;20437;-76
2022/10/15 00:40:53;;;;;;;0.70;0.40;;;13.60;99.90;;;;;;5093592;28;20789;-76
2022/10/15 00:43:44;;;;;;;0.50;0.30;;;13.60;99.90;;;;;;5092540;28;20545;-77
2022/10/15 00:46:22;;;;;;;0.50;0.30;;;13.60;99.90;;;;;;5093379;28;20430;-76
2022/10/15 00:48:52;;;;;;;1.90;1.27;;;13.50;99.90;;;;;;5093258;28;20419;-76
2022/10/15 00:51:20;;;;;;;0.70;0.70;;;13.50;99.90;;;;;;5093141;28;20419;-76
2022/10/15 00:53:49;;;;;;;2.30;1.33;;;13.40;99.90;;;;;;5092786;28;21010;-76
2022/10/15 00:56:19;;;;;;;6.57;3.60;;;13.40;99.90;;;;;;5092469;28;20471;-76
2022/10/15 00:58:48;;;;;;;0.50;0.30;;;13.40;99.90;;;;;;5092246;28;20420;-76
2022/10/15 01:01:15;;;;;;;0.50;0.30;;;13.40;99.90;;;;;;5092918;28;20445;-76
2022/10/15 01:03:43;;;;;;;5.50;1.53;;;13.40;99.90;;;;;;5092826;28;20482;-76
2022/10/15 01:06:09;;;;;;;0.50;0.40;;;13.40;99.90;;;;;;5092752;28;20442;-76
2022/10/15 01:08:37;;;;;;;0.50;0.30;;;13.40;99.90;;;;;;5092757;28;20443;-76
2022/10/15 01:11:13;;;;;;;1.47;1.27;;;13.30;99.90;;;;;;5092789;28;20453;-78
2022/10/15 01:13:53;;;;;;;0.50;0.30;;;13.30;99.90;;;;;;5092048;28;20549;-78
2022/10/15 01:16:31;;;;;;;0.70;0.70;;;13.40;99.90;;;;;;5092604;28;20455;-76
2022/10/15 01:19:05;;;;;;;1.27;0.60;;;13.30;99.90;;;;;;5092457;28;20488;-78
2022/10/15 01:21:38;;;;;;;0.50;0.40;;;13.30;99.90;;;;;;5092655;28;20431;-76
2022/10/15 01:24:39;;;;;;;0.50;0.30;;;13.30;99.90;;;;;;5092297;28;20430;-75
2022/10/15 01:27:32;;;;;;;0.50;0.40;;;13.30;99.90;;;;;;5092437;28;20419;-77
2022/10/15 01:30:21;;;;;;;0.53;0.53;;;13.20;99.90;;;;;;5092084;28;20420;-76
2022/10/15 01:33:02;;;;;;;2.83;2.50;;;13.30;99.90;;;;;;5092248;28;20980;-75
2022/10/15 01:35:38;;;;;;;3.80;2.00;;;13.30;99.90;;;;;;5092070;28;20426;-76
2022/10/15 01:38:15;;;;;;;10.33;3.60;;;13.30;99.90;;;;;;5092472;28;20439;-76
2022/10/15 01:40:48;;;;;;;0.50;0.40;;;13.30;99.90;;;;;;5091912;28;20423;-72
2022/10/15 01:43:21;;;;;;;1.93;1.80;;;13.40;99.90;;;;;;5091787;28;20473;-76
2022/10/15 01:45:52;;;;;;;2.40;1.07;;;13.40;99.90;;;;;;5091737;28;20434;-76
2022/10/15 01:48:22;;;;;;;1.07;1.07;;;13.40;99.90;;;;;;5091889;28;20497;-76
2022/10/15 01:50:54;;;;;;;1.87;1.77;;;13.40;99.90;;;;;;5091555;28;20420;-76
2022/10/15 01:53:25;;;;;;;2.40;1.50;;;13.40;99.90;;;;;;5092270;28;20475;-76
2022/10/15 01:55:55;;;;;;;2.03;1.93;;;13.40;99.90;;;;;;5090985;28;20455;-76
2022/10/15 01:58:24;;;;;;;0.50;0.40;;;13.40;99.90;;;;;;5091735;28;20420;-76
2022/10/15 02:00:53;;;;;;;2.77;2.67;;;13.40;99.90;;;;;;5091734;28;20481;-78
2022/10/15 02:03:21;;;;;;;1.77;1.00;;;13.40;99.90;;;;;;5091859;28;21019;-76
2022/10/15 02:05:53;;;;;;;0.70;0.60;;;13.40;99.90;;;;;;5090999;28;20534;-75
2022/10/15 02:08:24;;;;;;;0.50;0.40;;;13.40;99.90;;;;;;5091861;28;20424;-76
2022/10/15 02:10:56;;;;;;;4.17;3.80;;;13.40;99.90;;;;;;5091215;28;20420;-79
2022/10/15 02:13:30;;;;;;;0.50;0.37;;;13.50;99.90;;;;;;5091778;28;20461;-75
2022/10/15 02:16:06;;;;;;;0.50;0.30;;;13.50;99.90;;;;;;5091464;28;20429;-75
2022/10/15 02:18:41;;;;;;;0.50;0.40;;;13.50;99.90;;;;;;5091611;28;20449;-76
2022/10/15 02:21:13;;;;;;;0.60;0.60;;;13.50;99.90;;;;;;5091299;28;20970;-75
2022/10/15 02:23:47;;;;;;;4.53;1.80;;;13.40;99.90;;;;;;5091569;28;20512;-78
2022/10/15 02:26:16;;;;;;;0.50;0.40;;;13.50;99.90;;;;;;5090190;28;20439;-76
2022/10/15 02:28:46;;;;;;;0.50;0.47;;;13.50;99.90;;;;;;5091654;28;20841;-76
2022/10/15 02:31:15;;;;;;;3.53;3.27;;;13.50;99.90;;;;;;5091880;28;20438;-76
2022/10/15 02:33:44;;;;;;;2.90;2.70;;;13.50;99.90;;;;;;5091008;28;20463;-76
2022/10/15 02:36:12;;;;;;;2.93;1.77;;;13.50;99.90;;;;;;5091164;28;20447;-76
2022/10/15 02:38:42;;;;;;;0.50;0.40;;;13.50;99.90;;;;;;5091458;28;20468;-74
2022/10/15 02:41:10;;;;;;;0.60;0.60;;;13.50;99.90;;;;;;5091388;28;20425;-78
2022/10/15 02:43:39;;;;;;;0.50;0.40;;;13.50;99.90;;;;;;5091172;28;20471;-75
2022/10/15 02:46:08;;;;;;;0.50;0.37;;;13.50;99.90;;;;;;5091121;28;20446;-78
2022/10/15 02:48:35;;;;;;;4.03;3.60;;;13.50;99.90;;;;;;5091546;28;20439;-76
2022/10/15 02:51:03;;;;;;;1.50;1.40;;;13.40;99.90;;;;;;5091376;28;20430;-76
2022/10/15 02:53:30;;;;;;;2.00;1.90;;;13.40;99.90;;;;;;5091430;28;20459;-76
2022/10/15 02:55:57;;;;;;;0.60;0.60;;;13.30;99.90;;;;;;5090067;28;20435;-76
2022/10/15 02:58:24;;;;;;;0.67;0.67;;;13.30;99.90;;;;;;5090931;28;20998;-74
2022/10/15 03:00:51;;;;;;;2.90;2.73;;;13.30;99.90;;;;;;5091282;28;20439;-76
2022/10/15 03:03:18;;;;;;;0.73;0.73;;;13.30;99.90;;;;;;5091186;28;20457;-76
2022/10/15 03:05:45;;;;;;;1.73;1.03;;;13.20;99.90;;;;;;5090717;28;20445;-76
2022/10/15 03:08:13;;;;;;;2.30;1.70;;;13.20;99.90;;;;;;5091091;28;20492;-76
2022/10/15 03:10:40;;;;;;;3.47;3.20;;;13.20;99.90;;;;;;5090882;28;20449;-75
2022/10/15 03:13:07;;;;;;;0.50;0.30;;;13.10;99.90;;;;;;5090610;28;20467;-77
2022/10/15 03:15:36;;;;;;;0.50;0.43;;;13.20;99.90;;;;;;5090584;28;20447;-75
2022/10/15 03:18:03;;;;;;;5.60;2.67;;;13.10;99.90;;;;;;5090782;28;20910;-75
2022/10/15 03:20:30;;;;;;;0.73;0.73;;;13.10;99.90;;;;;;5090856;28;20955;-78
2022/10/15 03:22:56;;;;;;;1.27;1.17;;;13.20;99.90;;;;;;5090896;28;20832;-76
2022/10/15 03:25:25;;;;;;;0.90;0.90;;;13.20;99.90;;;;;;5090470;28;20441;-75
2022/10/15 03:27:52;;;;;;;2.57;2.47;;;13.20;99.90;;;;;;5090449;28;20522;-76
2022/10/15 03:30:19;;;;;;;3.87;3.40;;;13.20;99.90;;;;;;5091141;28;20435;-75
2022/10/15 03:32:47;;;;;;;0.50;0.40;;;13.20;99.90;;;;;;5090704;28;20542;-75
2022/10/15 03:35:13;;;;;;;0.50;0.37;;;13.20;99.90;;;;;;5090000;28;20436;-75
2022/10/15 03:37:40;;;;;;;2.63;1.80;;;13.20;99.90;;;;;;5093256;28;20474;-74
2022/10/15 03:40:08;;;;;;;2.50;2.40;;;13.20;99.90;;;;;;5094351;28;20443;-76
2022/10/15 03:42:37;;;;;;;0.60;0.50;;;13.20;99.90;;;;;;5093922;28;20536;-77
2022/10/15 03:45:04;;;;;;;0.50;0.40;;;13.20;99.90;;;;;;5094039;28;20534;-76
2022/10/15 03:47:31;;;;;;;0.50;0.40;;;13.20;99.90;;;;;;5094508;28;20461;-75
2022/10/15 03:49:58;;;;;;;1.10;1.10;;;13.20;99.90;;;;;;5093879;28;20449;-77
2022/10/15 03:52:24;;;;;;;3.67;1.03;;;13.20;99.90;;;;;;5094080;28;20538;-75
2022/10/15 03:54:51;;;;;;;0.50;0.33;;;13.20;99.90;;;;;;5092986;28;20962;-75
2022/10/15 03:57:18;;;;;;;0.50;0.40;;;13.20;99.90;;;;;;5094258;28;20467;-75
2022/10/15 03:59:46;;;;;;;1.10;0.53;;;13.10;99.90;;;;;;5094014;28;20803;-75
2022/10/15 04:02:13;;;;;;;2.80;1.90;;;13.10;99.90;;;;;;5093898;28;20538;-75
2022/10/15 04:04:40;;;;;;;0.50;0.40;;;13.10;99.90;;;;;;5093468;28;20449;-76
2022/10/15 04:07:06;;;;;;;1.33;1.23;;;13.10;99.90;;;;;;5094257;28;21133;-75
2022/10/15 04:09:33;;;;;;;1.57;1.57;;;13.10;99.90;;;;;;5094184;28;20530;-77
2022/10/15 04:12:00;;;;;;;0.97;0.97;;;13.10;99.90;;;;;;5093662;28;20493;-75
2022/10/15 04:14:27;;;;;;;0.50;0.40;;;13.10;99.90;;;;;;5093150;28;20439;-75
2022/10/15 04:16:57;;;;;;;0.50;0.33;;;13.10;99.90;;;;;;5093872;28;20833;-75
2022/10/15 04:19:24;;;;;;;0.50;0.40;;;13.10;99.90;;;;;;5093996;28;20781;-75
2022/10/15 04:21:51;;;;;;;0.50;0.30;;;13.10;99.90;;;;;;5093758;28;20547;-76
2022/10/15 04:24:18;;;;;;;2.00;1.90;;;13.20;99.90;;;;;;5092980;28;20573;-77
2022/10/15 04:26:45;;;;;;;10.13;2.40;;;13.20;99.90;;;;;;5093779;28;20437;-76
2022/10/15 04:29:11;;;;;;;1.23;1.03;;;13.20;99.90;;;;;;5093799;28;20766;-75
2022/10/15 04:31:38;;;;;;;0.70;0.70;;;13.20;99.90;;;;;;5093334;28;20434;-77
2022/10/15 04:34:07;;;;;;;3.13;2.50;;;13.10;99.90;;;;;;5093676;28;20443;-76
2022/10/15 04:36:34;;;;;;;0.73;0.73;;;13.10;99.90;;;;;;5093016;28;20812;-76
2022/10/15 04:39:01;;;;;;;0.50;0.40;;;13.20;99.90;;;;;;5093482;28;20446;-75
2022/10/15 04:41:29;;;;;;;10.30;6.30;;;13.10;99.90;;;;;;5093425;28;20445;-75
2022/10/15 04:43:56;;;;;;;0.90;0.90;;;13.20;99.90;;;;;;5093928;28;20794;-74
2022/10/15 04:46:23;;;;;;;2.97;2.67;;;13.20;99.90;;;;;;5092894;28;20435;-74
2022/10/15 04:48:51;;;;;;;1.13;0.93;;;13.20;99.90;;;;;;5092127;28;20433;-75
2022/10/15 04:51:20;;;;;;;1.80;1.70;;;13.20;99.90;;;;;;5093306;28;20431;-74
2022/10/15 04:53:47;;;;;;;1.03;1.03;;;13.20;99.90;;;;;;5092902;28;20455;-74
2022/10/15 04:56:16;;;;;;;1.80;1.03;;;13.20;99.90;;;;;;5091728;28;20974;-75
2022/10/15 04:58:45;;;;;;;1.10;1.03;;;13.20;99.90;;;;;;5093103;28;20467;-73
2022/10/15 05:01:14;;;;;;;2.00;1.07;;;13.20;99.90;;;;;;5093094;28;21014;-75
2022/10/15 05:03:42;;;;;;;3.50;3.13;;;13.20;99.90;;;;;;5092741;28;20991;-75
2022/10/15 05:06:11;;;;;;;0.53;0.43;;;13.20;99.90;;;;;;5092499;28;20940;-74
2022/10/15 05:08:40;;;;;;;1.10;0.60;;;13.20;99.90;;;;;;5091987;28;20921;-75
2022/10/15 05:11:09;;;;;;;5.40;3.93;;;13.20;99.90;;;;;;5092854;28;20435;-74
2022/10/15 05:13:36;;;;;;;0.80;0.80;;;13.20;99.90;;;;;;5092649;28;20463;-74
2022/10/15 05:16:10;;;;;;;4.10;2.30;;;13.20;99.90;;;;;;5092168;28;20431;-75
2022/10/15 05:18:37;;;;;;;3.33;2.67;;;13.20;99.90;;;;;;5092438;28;20456;-75
2022/10/15 05:21:04;;;;;;;1.93;1.83;;;13.10;99.90;;;;;;5092695;28;20489;-75
2022/10/15 05:23:31;;;;;;;1.23;1.13;;;13.10;99.90;;;;;;5092344;28;20462;-74
2022/10/15 05:26:01;;;;;;;1.97;1.70;;;13.10;99.90;;;;;;5092492;28;20526;-73
2022/10/15 05:28:28;;;;;;;0.50;0.30;;;13.10;99.90;;;;;;5092210;28;20443;-75
2022/10/15 05:30:55;;;;;;;0.97;0.97;;;13.00;99.90;;;;;;5092184;28;20820;-75
2022/10/15 05:33:21;;;;;;;0.60;0.60;;;13.00;99.90;;;;;;5091973;28;20470;-74
2022/10/15 05:35:48;;;;;;;0.53;0.43;;;13.00;99.90;;;;;;5091805;28;20533;-75
2022/10/15 05:38:15;;;;;;;10.53;1.37;;;12.90;99.90;;;;;;5092413;28;20558;-73
2022/10/15 05:40:47;;;;;;;0.60;0.60;;;12.90;99.90;;;;;;5092210;28;20576;-74
2022/10/15 05:43:16;;;;;;;0.93;0.93;;;12.90;99.90;;;;;;5091685;28;20482;-75
2022/10/15 05:45:43;;;;;;;1.57;1.47;;;12.90;99.90;;;;;;5091985;28;20881;-75
2022/10/15 05:48:09;;;;;;;2.73;2.10;;;12.80;99.90;;;;;;5091675;28;20431;-75
2022/10/15 05:50:36;;;;;;;2.57;2.40;;;12.80;99.90;;;;;;5091760;28;20439;-74
2022/10/15 05:53:03;;;;;;;2.40;2.20;;;12.80;99.90;;;;;;5091864;28;20937;-74
2022/10/15 05:55:30;;;;;;;0.90;0.90;;;12.80;99.90;;;;;;5091240;28;20522;-75
2022/10/15 05:58:01;;;;;;;0.97;0.97;;;12.80;99.90;;;;;;5091715;28;20975;-76
2022/10/15 06:00:29;;;;;;;26.57;3.60;;;12.80;99.90;;;;;;5091963;28;20808;-76
2022/10/15 06:02:56;;;;;;;1.67;1.20;;;12.90;99.90;;;;;;5091296;28;20469;-75
2022/10/15 06:05:24;;;;;;;3.80;3.03;;;12.90;99.90;;;;;;5091404;28;20839;-76
2022/10/15 06:07:51;;;;;;;2.30;2.10;;;12.90;99.90;;;;;;5091615;28;20435;-76
2022/10/15 06:10:18;;;;;;;4.00;1.90;;;13.00;99.90;;;;;;5091702;28;20439;-75
2022/10/15 06:12:49;;;;;;;4.07;3.73;;;13.00;99.90;;;;;;5091417;28;20874;-75
2022/10/15 06:15:16;;;;;;;4.87;2.93;;;12.90;99.90;;;;;;5091406;28;20781;-76
2022/10/15 06:17:44;;;;;;;0.50;0.40;;;12.90;99.90;;;;;;5091782;28;20485;-75
2022/10/15 06:20:12;;;;;;;0.60;0.60;;;12.90;99.90;;;;;;5091340;28;20443;-75
2022/10/15 06:22:39;;;;;;;0.50;0.33;;;12.90;99.90;;;;;;5091399;28;20455;-76
2022/10/15 06:25:07;;;;;;;4.93;3.47;;;12.90;99.90;;;;;;5090908;28;20457;-76
2022/10/15 06:27:34;;;;;;;5.07;3.90;;;13.00;99.90;;;;;;5091421;28;20441;-75
2022/10/15 06:30:01;;;;;;;2.20;1.47;;;13.00;99.90;;;;;;5091307;28;20804;-75
2022/10/15 06:32:27;;;;;;;2.20;2.00;;;13.10;99.90;;;;;;5091849;28;20458;-76
2022/10/15 06:34:56;;;;;;;1.13;0.80;;;13.10;99.90;;;;;;5091185;28;20873;-76
2022/10/15 06:37:23;;;;;;;2.40;2.20;;;13.20;99.90;;;;;;5091032;28;20959;-76
2022/10/15 06:39:50;;;;;;;6.67;4.63;;;13.20;99.90;;;;;;5092169;28;20439;-75
2022/10/15 06:42:16;;;;;;;1.33;0.90;;;13.20;99.90;;;;;;5091775;28;20561;-76
2022/10/15 06:44:43;;;;;;;0.50;0.40;;;13.20;99.90;;;;;;5091085;28;20439;-76
2022/10/15 06:47:10;;;;;;;0.60;0.50;;;13.30;99.90;;;;;;5091706;28;20896;-76
2022/10/15 06:49:37;;;;;;;1.23;1.23;;;13.30;99.90;;;;;;5090532;28;20427;-76
2022/10/15 06:52:05;;;;;;;3.13;2.83;;;13.30;99.90;;;;;;5091273;28;20513;-76
2022/10/15 06:54:32;;;;;;;1.07;0.97;;;13.40;99.90;;;;;;5090531;28;20447;-76
2022/10/15 06:56:59;;;;;;;2.63;2.53;;;13.40;99.90;;;;;;5091096;28;20442;-76
2022/10/15 06:59:25;;;;;;;0.50;0.30;;;13.40;99.90;;;;;;5090770;28;20848;-76
2022/10/15 07:01:52;;;;;;;0.50;0.33;;;13.50;99.90;;;;;;5091420;28;20454;-76
2022/10/15 07:04:19;;;;;;;1.03;1.03;;;13.60;99.90;;;;;;5090404;28;20439;-76
2022/10/15 07:06:46;;;;;;;1.67;1.57;;;13.60;99.90;;;;;;5091346;28;20526;-76
2022/10/15 07:09:14;;;;;;;5.10;3.93;;;13.70;99.90;;;;;;5090998;28;20530;-76
2022/10/15 07:11:41;;;;;;;0.83;0.83;;;13.80;99.90;;;;;;5091633;28;20439;-76
2022/10/15 07:14:08;;;;;;;0.60;0.60;;;14.00;99.90;;;;;;5094657;28;20812;-75
2022/10/15 07:16:36;;;;;;;0.70;0.70;;;14.20;99.90;;;;;;5094660;28;20439;-76
2022/10/15 07:19:03;;;;;;;1.83;1.13;;;14.50;99.90;;;;;;5094963;28;20471;-76
2022/10/15 07:21:30;;;;;;;0.53;0.47;;;14.70;99.90;;;;;;5094938;28;20443;-77
2022/10/15 07:23:58;;;;;;;2.30;2.13;;;14.90;99.90;;;;;;5094305;28;20786;-76
2022/10/15 07:26:28;;;;;;;1.23;1.20;;;14.90;99.90;;;;;;5094948;28;20804;-75
2022/10/15 07:28:54;;;;;;;0.50;0.30;;;14.90;99.90;;;;;;5094300;28;20439;-76
2022/10/15 07:31:22;;;;;;;0.50;0.30;;;14.80;99.90;;;;;;5094586;28;20431;-76
2022/10/15 07:33:49;;;;;;;0.83;0.53;;;14.80;99.90;;;;;;5094360;28;20459;-76
2022/10/15 07:36:16;;;;;;;0.50;0.33;;;14.80;99.90;;;;;;5094250;28;20538;-76
2022/10/15 07:38:43;;;;;;;0.50;0.43;;;14.80;99.90;;;;;;5094557;28;20502;-72
2022/10/15 07:41:10;;;;;;;0.90;0.60;;;14.80;99.90;;;;;;5094728;28;20439;-76
2022/10/15 07:43:39;;;;;;;4.17;3.87;;;14.80;99.90;;;;;;5093987;28;20512;-76
2022/10/15 07:46:06;;;;;;;0.50;0.30;;;14.80;99.90;;;;;;5094374;28;20438;-76
2022/10/15 07:48:33;;;;;;;2.40;2.30;;;14.80;99.90;;;;;;5094363;28;20471;-76
2022/10/15 07:51:01;;;;;;;1.47;1.37;;;14.90;99.90;;;;;;5094473;28;20528;-76
2022/10/15 07:53:28;;;;;;;0.50;0.40;;;15.10;99.90;;;;;;5093950;28;20459;-77
2022/10/15 07:55:58;;;;;;;1.10;1.00;;;15.60;99.90;;;;;;5092896;28;20435;-76
2022/10/15 07:58:25;;;;;;;5.90;4.43;;;16.40;99.90;;;;;;5093905;28;21006;-76
2022/10/15 08:00:53;;;;;;;0.50;0.40;;;17.70;99.90;;;;;;5094450;28;20435;-77
2022/10/15 08:03:20;;;;;;;0.50;0.50;;;18.70;99.90;;;;;;5095010;28;20555;-78
2022/10/15 08:05:47;;;;;;;0.50;0.30;;;19.60;99.90;;;;;;5093765;28;20803;-77
2022/10/15 08:08:14;;;;;;;5.97;3.87;;;20.60;99.90;;;;;;5093508;28;20475;-78
2022/10/15 08:10:41;;;;;;;0.50;0.40;;;21.60;99.90;;;;;;5093914;28;21095;-78
2022/10/15 08:13:08;;;;;;;0.60;0.47;;;21.90;99.90;;;;;;5093665;28;20558;-77
2022/10/15 08:15:34;;;;;;;1.60;1.50;;;22.70;99.90;;;;;;5093771;28;20450;-78
2022/10/15 08:18:03;;;;;;;2.10;2.00;;;22.80;99.90;;;;;;5093426;28;20988;-77
2022/10/15 08:20:29;;;;;;;0.77;0.77;;;22.40;99.90;;;;;;5093770;28;20437;-78
2022/10/15 08:22:56;;;;;;;4.43;4.03;;;22.20;99.90;;;;;;5093039;28;21047;-75
2022/10/15 08:25:23;;;;;;;2.60;2.40;;;22.10;99.90;;;;;;5092979;28;20781;-75
2022/10/15 08:27:50;;;;;;;1.03;1.00;;;21.90;99.90;;;;;;5093690;28;20488;-76
2022/10/15 08:30:17;;;;;;;1.77;1.63;;;22.10;99.90;;;;;;5093388;28;20538;-76
2022/10/15 08:32:44;;;;;;;2.17;2.07;;;23.50;99.90;;;;;;5092629;28;20972;-75
2022/10/15 08:35:12;;;;;;;0.50;0.30;;;24.90;99.90;;;;;;5092859;28;20533;-76
2022/10/15 08:37:39;;;;;;;0.50;0.30;;;24.80;99.90;;;;;;5093449;28;20435;-74
2022/10/15 08:40:07;;;;;;;0.50;0.37;;;25.50;99.90;;;;;;5092846;28;20475;-76
2022/10/15 08:42:37;;;;;;;1.37;1.27;;;26.10;99.90;;;;;;5093235;28;20524;-73
2022/10/15 08:45:10;;;;;;;2.10;2.00;;;26.70;99.90;;;;;;5093171;28;20526;-78
2022/10/15 08:47:43;;;;;;;1.93;1.83;;;26.80;99.90;;;;;;5093169;28;20445;-78
2022/10/15 08:50:23;;;;;;;0.70;0.43;;;25.80;99.90;;;;;;5093173;28;20458;-78
2022/10/15 08:52:50;;;;;;;3.20;1.40;;;24.40;99.90;;;;;;5093234;28;20470;-77
2022/10/15 08:55:19;;;;;;;0.83;0.83;;;23.10;99.90;;;;;;5091943;28;20441;-77
2022/10/15 08:57:53;;;;;;;0.50;0.40;;;21.70;99.90;;;;;;5092842;28;20443;-78
2022/10/15 09:00:23;;;;;;;0.50;0.30;;;20.90;99.90;;;;;;5092706;28;20477;-77
2022/10/15 09:02:57;;;;;;;0.50;0.40;;;20.50;99.90;;;;;;5093327;28;20455;-77
2022/10/15 09:05:36;;;;;;;0.50;0.40;;;20.10;99.90;;;;;;5092263;28;20415;-78
2022/10/15 09:08:13;;;;;;;0.60;0.60;;;19.90;99.90;;;;;;5093035;28;20430;-77
2022/10/15 09:10:45;;;;;;;0.50;0.30;;;19.50;99.90;;;;;;5092599;28;20515;-77
2022/10/15 09:13:15;;;;;;;0.60;0.40;;;19.20;99.90;;;;;;5092771;28;20455;-77
2022/10/15 09:15:48;;;;;;;0.73;0.47;;;19.10;99.90;;;;;;5091912;28;20809;-76
2022/10/15 09:18:21;;;;;;;0.50;0.40;;;19.30;99.90;;;;;;5092676;28;20435;-77
2022/10/15 09:20:50;;;;;;;0.50;0.30;;;19.80;99.90;;;;;;5092332;28;20434;-77
2022/10/15 09:23:19;;;;;;;0.50;0.50;;;20.30;99.90;;;;;;5092171;28;20824;-76
2022/10/15 09:25:55;;;;;;;6.43;1.47;;;20.30;99.90;;;;;;5092275;28;20531;-77
2022/10/15 09:28:29;;;;;;;0.50;0.30;;;20.20;99.90;;;;;;5092064;28;20441;-78
2022/10/15 09:30:57;;;;;;;0.70;0.50;;;20.00;99.90;;;;;;5092084;28;20441;-77
2022/10/15 09:33:33;;;;;;;0.50;0.30;;;20.10;99.90;;;;;;5092252;28;20462;-78
2022/10/15 09:36:17;;;;;;;0.50;0.30;;;20.30;99.90;;;;;;5091099;28;20905;-77
2022/10/15 09:38:54;;;;;;;0.50;0.40;;;20.40;99.90;;;;;;5092273;28;20467;-74
2022/10/15 09:41:30;;;;;;;0.50;0.30;;;20.30;99.90;;;;;;5092099;28;20488;-78
2022/10/15 09:44:00;;;;;;;0.50;0.30;;;20.20;99.90;;;;;;5091738;28;20457;-77
2022/10/15 09:46:27;;;;;;;0.50;0.40;;;20.30;99.90;;;;;;5092239;28;20442;-77
2022/10/15 09:49:02;;;;;;;0.50;0.30;;;20.40;99.90;;;;;;5091714;28;20431;-77
2022/10/15 09:51:35;;;;;;;0.60;0.40;;;20.40;99.90;;;;;;5091864;28;20423;-77
2022/10/15 09:54:10;;;;;;;0.50;0.30;;;20.30;99.90;;;;;;5091650;28;20415;-75
2022/10/15 09:56:39;;;;;;;0.50;0.33;;;19.90;99.90;;;;;;5091540;28;20950;-77
2022/10/15 09:59:06;;;;;;;0.50;0.30;;;19.70;99.90;;;;;;5091764;28;20475;-77
2022/10/15 10:01:33;;;;;;;0.50;0.30;;;19.50;99.90;;;;;;5091480;28;20874;-74
2022/10/15 10:04:12;;;;;;;2.20;1.57;;;19.10;99.90;;;;;;5091812;28;20435;-76
2022/10/15 10:06:50;;;;;;;0.50;0.40;;;18.60;99.90;;;;;;5091892;28;20419;-77
2022/10/15 10:09:20;;;;;;;0.60;0.40;;;18.30;99.90;;;;;;5091807;28;20437;-77
2022/10/15 10:11:50;;;;;;;0.50;0.30;;;18.30;99.90;;;;;;5091603;28;20609;-77
2022/10/15 10:14:23;;;;;;;0.50;0.30;;;18.40;99.90;;;;;;5091251;28;20529;-78
2022/10/15 10:17:14;;;;;;;0.50;0.40;;;18.60;99.90;;;;;;5092229;28;20426;-77
2022/10/15 10:19:40;;;;;;;0.50;0.30;;;18.50;99.90;;;;;;5091476;28;20895;-77
2022/10/15 10:22:14;;;;;;;0.50;0.30;;;18.50;99.90;;;;;;5091508;28;20459;-77
2022/10/15 10:24:41;;;;;;;0.50;0.40;;;18.40;99.90;;;;;;5091498;28;20805;-77
2022/10/15 10:27:19;;;;;;;0.50;0.40;;;18.40;99.90;;;;;;5091221;28;20435;-77
2022/10/15 10:29:51;;;;;;;0.83;0.53;;;18.40;99.90;;;;;;5091379;28;20419;-74
2022/10/15 10:32:22;;;;;;;1.10;0.50;;;18.40;99.90;;;;;;5091351;28;20467;-77
2022/10/15 10:34:49;;;;;;;0.50;0.30;;;18.40;99.90;;;;;;5091318;28;20526;-77
2022/10/15 10:37:18;;;;;;;0.50;0.33;;;18.60;99.90;;;;;;5091648;28;20588;-77
2022/10/15 10:39:46;;;;;;;0.60;0.40;;;18.60;99.90;;;;;;5091285;28;20489;-74
2022/10/15 10:42:31;;;;;;;0.50;0.40;;;18.50;99.90;;;;;;5090731;28;20979;-76
2022/10/15 10:45:16;;;;;;;0.60;0.47;;;18.40;99.90;;;;;;5079973;22;20499;-76
2022/10/15 10:47:43;;;;;;;0.50;0.40;;;18.40;99.90;;;;;;5055961;28;20490;-76
2022/10/15 10:50:29;;;;;;;0.50;0.33;;;18.20;99.90;;;;;;5060913;28;20520;-76
2022/10/15 10:52:58;;;;;;;0.50;0.40;;;17.90;99.90;;;;;;5060938;28;20431;-77
2022/10/15 10:55:33;;;;;;;0.50;0.30;;;17.70;99.90;;;;;;5074459;28;20455;-76
2022/10/15 10:58:01;;;;;;;0.50;0.30;;;17.60;99.90;;;;;;5075282;28;20491;-76
2022/10/15 11:00:40;;;;;;;0.50;0.30;;;17.50;99.90;;;;;;5074931;28;20471;-72
2022/10/15 11:03:30;;;;;;;0.50;0.40;;;17.30;99.90;;;;;;5075322;28;20427;-76
2022/10/15 11:06:04;;;;;;;0.50;0.37;;;17.10;99.90;;;;;;5074121;28;20439;-76
2022/10/15 11:08:42;;;;;;;0.50;0.40;;;16.90;99.90;;;;;;5074895;28;20813;-77
2022/10/15 11:11:18;;;;;;;0.50;0.30;;;16.90;99.90;;;;;;5074743;28;20507;-76
2022/10/15 11:13:55;;;;;;;0.50;0.40;;;16.90;99.90;;;;;;5074866;28;20872;-76
2022/10/15 11:16:28;;;;;;;0.70;0.60;;;16.90;99.90;;;;;;5074865;28;20857;-75
2022/10/15 11:19:07;;;;;;;0.50;0.30;;;16.90;99.90;;;;;;5074629;28;20515;-77
2022/10/15 11:21:51;;;;;;;0.50;0.40;;;16.80;99.90;;;;;;5074596;28;20839;-77
2022/10/15 11:24:24;;;;;;;0.50;0.30;;;16.70;99.90;;;;;;5074872;28;20458;-76
2022/10/15 11:27:08;;;;;;;0.50;0.40;;;16.80;99.90;;;;;;5074033;28;20802;-76
2022/10/15 11:29:41;;;;;;;0.50;0.30;;;16.70;99.90;;;;;;5074649;28;20431;-77
2022/10/15 11:32:20;;;;;;;0.50;0.40;;;16.70;99.90;;;;;;5074436;28;20427;-77
2022/10/15 11:35:07;;;;;;;0.50;0.40;;;16.60;99.90;;;;;;5073908;28;21129;-75
2022/10/15 11:37:47;;;;;;;0.50;0.33;;;16.70;99.90;;;;;;5073971;28;20526;-76
2022/10/15 11:40:21;;;;;;;0.50;0.40;;;16.80;99.90;;;;;;5074264;28;20455;-76
2022/10/15 11:42:54;;;;;;;1.57;1.47;;;16.90;99.90;;;;;;5074462;28;20420;-76
2022/10/15 11:45:47;;;;;;;0.50;0.30;;;17.00;99.90;;;;;;5073651;28;20468;-73
2022/10/15 11:48:23;;;;;;;0.50;0.30;;;17.10;99.90;;;;;;5074202;28;20421;-77
2022/10/15 11:50:55;;;;;;;1.23;1.10;;;17.20;99.90;;;;;;5074096;28;20422;-76
2022/10/15 11:53:45;;;;;;;0.63;0.60;;;17.20;99.90;;;;;;5074185;28;20424;-76
2022/10/15 11:56:18;;;;;;;0.63;0.63;;;17.00;99.90;;;;;;5073924;28;20561;-76
2022/10/15 11:58:49;;;;;;;0.50;0.40;;;17.00;99.90;;;;;;5073628;28;20989;-76
2022/10/15 12:01:21;;;;;;;0.50;0.30;;;17.00;99.90;;;;;;5073544;28;20993;-77
2022/10/15 12:03:52;;;;;;;0.50;0.30;;;17.00;99.90;;;;;;5073517;28;20460;-76
2022/10/15 12:06:22;;;;;;;0.50;0.30;;;17.00;99.90;;;;;;5073804;28;20532;-77
2022/10/15 12:08:51;;;;;;;0.50;0.40;;;17.00;99.90;;;;;;5073814;28;20432;-76
2022/10/15 12:11:28;;;;;;;0.50;0.40;;;17.10;99.90;;;;;;5074032;28;20432;-77
2022/10/15 12:14:03;;;;;;;0.60;0.57;;;17.20;99.90;;;;;;5073183;28;20474;-75
2022/10/15 12:16:39;;;;;;;0.60;0.40;;;17.20;99.90;;;;;;5073236;28;20446;-76
2022/10/15 12:19:15;;;;;;;0.60;0.50;;;17.30;99.90;;;;;;5073392;28;20427;-76
2022/10/15 12:22:05;;;;;;;0.50;0.30;;;17.20;99.90;;;;;;5073807;28;20806;-77
2022/10/15 12:24:53;;;;;;;0.50;0.30;;;17.10;99.90;;;;;;5072635;28;20468;-76
2022/10/15 12:27:38;;;;;;;0.50;0.37;;;17.10;99.90;;;;;;5073037;28;20535;-76
2022/10/15 12:30:23;;;;;;;0.50;0.30;;;17.10;99.90;;;;;;5073444;28;20434;-77
2022/10/15 12:32:50;;;;;;;0.50;0.30;;;17.10;99.90;;;;;;5073625;28;20522;-76
2022/10/15 12:35:36;;;;;;;0.50;0.33;;;17.00;99.90;;;;;;5072689;28;20462;-77
2022/10/15 12:38:18;;;;;;;0.50;0.40;;;17.10;99.90;;;;;;5073357;28;20435;-76
2022/10/15 12:40:45;;;;;;;0.70;0.70;;;17.10;99.90;;;;;;5072821;28;20456;-76
2022/10/15 12:43:16;;;;;;;0.70;0.50;;;17.10;99.90;;;;;;5073266;28;20432;-75
2022/10/15 12:45:51;;;;;;;0.50;0.33;;;17.10;99.90;;;;;;5073088;28;20554;-76
2022/10/15 12:48:21;;;;;;;0.50;0.30;;;17.10;99.90;;;;;;5072972;28;20434;-77
2022/10/15 12:50:48;;;;;;;0.50;0.30;;;17.30;99.90;;;;;;5073214;28;20419;-77
2022/10/15 12:53:31;;;;;;;0.50;0.40;;;17.50;99.90;;;;;;5072875;28;20490;-76
2022/10/15 12:56:23;;;;;;;0.50;0.40;;;17.70;99.90;;;;;;5072431;28;20467;-77
2022/10/15 12:58:52;;;;;;;0.50;0.40;;;17.80;99.90;;;;;;5072866;28;20520;-77
2022/10/15 13:01:30;;;;;;;0.50;0.40;;;17.90;99.90;;;;;;5072356;28;20472;-76
2022/10/15 13:03:59;;;;;;;0.50;0.40;;;18.00;99.90;;;;;;5072063;28;20463;-77